Time;durP1;ratioP1;P1;durP2;ratioP2;P2;SDS_P1;SDS_P2;PMS_P1;PMS_P2;Temp;Humidity;BMP_temperature;BMP_pressure;BME280_temperature;BME280_humidity;BME280_pressure;Samples;Min_cycle;Max_cycle;Signal;HPM_P1;HPM_P2
2022/07/25 00:01:47;;;;;;;8.82;4.90;;;;;;;;;;5063867;28;20025;-85
2022/07/25 00:04:13;;;;;;;7.88;5.30;;;;;;;;;;5081469;28;20107;-85
2022/07/25 00:06:40;;;;;;;8.35;4.82;;;;;;;;;;5050123;28;20024;-85
2022/07/25 00:09:06;;;;;;;8.20;5.05;;;;;;;;;;5061458;28;20037;-83
2022/07/25 00:11:32;;;;;;;6.97;4.95;;;;;;;;;;5063032;28;20471;-83
2022/07/25 00:13:58;;;;;;;7.43;5.20;;;;;;;;;;5062111;28;20033;-83
2022/07/25 00:16:24;;;;;;;7.25;4.97;;;;;;;;;;5069996;28;20040;-82
2022/07/25 00:18:50;;;;;;;8.25;5.40;;;;;;;;;;5080735;28;20035;-83
2022/07/25 00:21:16;;;;;;;7.45;5.28;;;;;;;;;;5050665;28;20037;-83
2022/07/25 00:23:43;;;;;;;7.70;4.70;;;;;;;;;;5044150;28;20399;-85
2022/07/25 00:26:09;;;;;;;8.07;5.50;;;;;;;;;;5050430;28;20035;-82
2022/07/25 00:28:35;;;;;;;7.20;5.20;;;;;;;;;;5063598;28;20036;-83
2022/07/25 00:31:01;;;;;;;7.93;5.18;;;;;;;;;;5055106;28;20447;-83
2022/07/25 00:33:27;;;;;;;7.00;4.60;;;;;;;;;;5061514;28;20108;-85
2022/07/25 00:35:53;;;;;;;7.40;4.75;;;;;;;;;;5044650;28;20052;-85
2022/07/25 00:38:19;;;;;;;8.20;4.95;;;;;;;;;;5053171;28;20029;-82
2022/07/25 00:40:45;;;;;;;9.63;6.03;;;;;;;;;;5063029;28;20379;-83
2022/07/25 00:43:12;;;;;;;8.30;5.78;;;;;;;;;;5081032;28;20021;-83
2022/07/25 00:45:38;;;;;;;6.50;4.80;;;;;;;;;;5061751;28;20027;-83
2022/07/25 00:48:04;;;;;;;8.48;5.05;;;;;;;;;;5064024;28;20119;-83
2022/07/25 00:50:30;;;;;;;7.70;4.85;;;;;;;;;;5080669;28;20028;-83
2022/07/25 00:52:56;;;;;;;8.05;4.97;;;;;;;;;;5079526;28;20025;-83
2022/07/25 00:55:23;;;;;;;8.18;5.30;;;;;;;;;;5078147;28;20105;-85
2022/07/25 00:57:49;;;;;;;6.45;4.53;;;;;;;;;;5074195;28;20074;-85
2022/07/25 01:00:16;;;;;;;7.45;5.03;;;;;;;;;;5067091;28;20025;-85
2022/07/25 01:02:43;;;;;;;7.47;4.60;;;;;;;;;;5059764;28;20045;-85
2022/07/25 01:05:09;;;;;;;7.18;5.13;;;;;;;;;;5042771;28;20025;-85
2022/07/25 01:07:36;;;;;;;6.72;4.07;;;;;;;;;;5066486;28;20051;-85
2022/07/25 01:10:02;;;;;;;6.55;4.43;;;;;;;;;;5081662;28;20016;-85
2022/07/25 01:12:28;;;;;;;7.70;5.13;;;;;;;;;;5063586;28;20028;-85
2022/07/25 01:14:54;;;;;;;6.88;4.78;;;;;;;;;;5062833;28;20068;-85
2022/07/25 01:17:20;;;;;;;7.80;5.00;;;;;;;;;;5075120;28;20041;-85
2022/07/25 01:19:46;;;;;;;7.43;4.30;;;;;;;;;;5059007;28;20024;-85
2022/07/25 01:22:12;;;;;;;6.93;4.53;;;;;;;;;;5060558;28;20447;-85
2022/07/25 01:24:38;;;;;;;7.30;4.90;;;;;;;;;;5042397;28;20025;-85
2022/07/25 01:27:05;;;;;;;7.00;4.93;;;;;;;;;;5052624;28;20058;-85
2022/07/25 01:29:31;;;;;;;7.20;5.00;;;;;;;;;;5061447;28;20028;-85
2022/07/25 01:31:57;;;;;;;7.57;5.03;;;;;;;;;;5062528;28;20048;-85
2022/07/25 01:34:23;;;;;;;7.20;5.10;;;;;;;;;;5063452;28;20035;-85
2022/07/25 01:36:49;;;;;;;7.00;4.22;;;;;;;;;;5062128;28;20335;-85
2022/07/25 01:39:15;;;;;;;7.82;4.82;;;;;;;;;;5080321;28;20462;-85
2022/07/25 01:41:41;;;;;;;8.23;5.82;;;;;;;;;;5076961;28;20032;-85
2022/07/25 01:44:07;;;;;;;6.57;4.20;;;;;;;;;;5079112;28;20544;-84
2022/07/25 01:46:33;;;;;;;6.50;4.32;;;;;;;;;;5080649;28;20082;-85
2022/07/25 01:48:59;;;;;;;6.68;4.70;;;;;;;;;;5062524;28;20082;-85
2022/07/25 01:51:25;;;;;;;7.75;4.97;;;;;;;;;;5063516;28;20020;-85
2022/07/25 01:53:51;;;;;;;7.25;4.90;;;;;;;;;;5078584;28;20095;-85
2022/07/25 01:56:17;;;;;;;7.75;5.25;;;;;;;;;;5070384;28;20092;-85
2022/07/25 01:58:43;;;;;;;7.60;5.00;;;;;;;;;;5059166;28;20083;-85
2022/07/25 02:01:09;;;;;;;6.53;4.28;;;;;;;;;;5058231;28;20025;-85
2022/07/25 02:03:35;;;;;;;7.85;5.00;;;;;;;;;;5059881;28;20041;-85
2022/07/25 02:06:02;;;;;;;7.30;4.93;;;;;;;;;;5080049;28;20020;-85
2022/07/25 02:08:29;;;;;;;9.38;4.95;;;;;;;;;;5080336;28;20016;-85
2022/07/25 02:10:55;;;;;;;8.40;5.22;;;;;;;;;;5078134;28;20032;-85
2022/07/25 02:13:21;;;;;;;9.98;5.13;;;;;;;;;;5078679;28;20433;-85
2022/07/25 02:15:47;;;;;;;7.40;4.80;;;;;;;;;;5079593;28;20158;-85
2022/07/25 02:18:13;;;;;;;8.55;5.68;;;;;;;;;;5060408;28;20033;-85
2022/07/25 02:20:39;;;;;;;7.28;4.90;;;;;;;;;;5076832;28;20441;-85
2022/07/25 02:23:05;;;;;;;7.40;5.30;;;;;;;;;;5079698;28;20039;-85
2022/07/25 02:25:32;;;;;;;7.95;5.28;;;;;;;;;;5080266;28;20035;-85
2022/07/25 02:27:58;;;;;;;8.73;5.05;;;;;;;;;;5062119;28;20139;-85
2022/07/25 02:30:26;;;;;;;7.03;4.95;;;;;;;;;;5079377;28;20046;-85
2022/07/25 02:32:52;;;;;;;6.88;4.93;;;;;;;;;;5059565;28;20036;-84
2022/07/25 02:35:18;;;;;;;7.72;5.13;;;;;;;;;;5060489;28;20078;-85
2022/07/25 02:37:45;;;;;;;7.65;5.28;;;;;;;;;;5059042;28;20060;-85
2022/07/25 02:40:11;;;;;;;8.73;5.38;;;;;;;;;;5069765;28;20115;-85
2022/07/25 02:42:37;;;;;;;8.38;5.50;;;;;;;;;;5080132;28;20033;-85
2022/07/25 02:45:03;;;;;;;7.18;4.80;;;;;;;;;;5062351;28;20096;-85
2022/07/25 02:47:29;;;;;;;9.10;5.38;;;;;;;;;;5066780;28;20108;-85
2022/07/25 02:49:55;;;;;;;8.60;5.28;;;;;;;;;;5059239;28;20052;-85
2022/07/25 02:52:21;;;;;;;7.40;5.15;;;;;;;;;;5059345;28;20024;-85
2022/07/25 02:54:47;;;;;;;7.18;5.00;;;;;;;;;;5049915;28;20499;-85
2022/07/25 02:57:13;;;;;;;8.77;4.97;;;;;;;;;;5061623;28;20034;-85
2022/07/25 02:59:39;;;;;;;8.00;4.80;;;;;;;;;;5079495;28;20064;-85
2022/07/25 03:02:05;;;;;;;9.35;5.72;;;;;;;;;;5079617;28;20028;-85
2022/07/25 03:04:32;;;;;;;7.20;5.10;;;;;;;;;;5050021;28;20043;-85
2022/07/25 03:06:58;;;;;;;7.60;5.47;;;;;;;;;;5066310;28;20033;-85
2022/07/25 03:09:24;;;;;;;8.68;5.15;;;;;;;;;;5059173;28;20024;-85
2022/07/25 03:11:50;;;;;;;7.45;5.22;;;;;;;;;;5059295;28;20021;-85
2022/07/25 03:14:17;;;;;;;7.25;5.40;;;;;;;;;;5041287;28;20032;-85
2022/07/25 03:16:43;;;;;;;7.93;5.22;;;;;;;;;;5057670;28;20028;-85
2022/07/25 03:19:10;;;;;;;8.45;5.72;;;;;;;;;;5059774;28;20036;-85
2022/07/25 03:21:37;;;;;;;7.97;5.70;;;;;;;;;;5079912;28;20020;-85
2022/07/25 03:24:03;;;;;;;8.52;6.25;;;;;;;;;;5078433;28;20029;-84
2022/07/25 03:26:29;;;;;;;8.07;5.15;;;;;;;;;;5062072;28;20031;-85
2022/07/25 03:28:55;;;;;;;8.00;5.25;;;;;;;;;;5059478;28;20037;-85
2022/07/25 03:31:21;;;;;;;8.77;5.53;;;;;;;;;;5080113;28;20025;-85
2022/07/25 03:33:47;;;;;;;8.30;5.45;;;;;;;;;;5062292;28;20029;-85
2022/07/25 03:36:13;;;;;;;7.93;5.13;;;;;;;;;;5057933;28;20317;-85
2022/07/25 03:38:39;;;;;;;7.07;5.03;;;;;;;;;;5020620;28;20022;-85
2022/07/25 03:41:05;;;;;;;8.57;5.63;;;;;;;;;;5038713;28;20049;-85
2022/07/25 03:43:31;;;;;;;9.48;7.18;;;;;;;;;;5038600;28;20234;-85
2022/07/25 03:45:57;;;;;;;8.77;5.40;;;;;;;;;;5022811;28;20029;-85
2022/07/25 03:48:23;;;;;;;9.18;5.47;;;;;;;;;;5041182;28;20430;-85
2022/07/25 03:50:49;;;;;;;7.43;5.40;;;;;;;;;;5042600;28;20032;-85
2022/07/25 03:53:15;;;;;;;8.07;6.05;;;;;;;;;;5044813;28;20442;-85
2022/07/25 03:55:41;;;;;;;9.75;5.90;;;;;;;;;;5062556;28;20021;-85
2022/07/25 03:58:07;;;;;;;8.68;6.00;;;;;;;;;;5051126;28;20402;-85
2022/07/25 04:00:33;;;;;;;8.48;5.28;;;;;;;;;;5064385;28;20024;-85
2022/07/25 04:02:59;;;;;;;7.25;4.88;;;;;;;;;;5064764;28;20050;-85
2022/07/25 04:05:26;;;;;;;7.70;5.20;;;;;;;;;;5082276;28;20101;-85
2022/07/25 04:07:52;;;;;;;9.07;5.50;;;;;;;;;;5081363;28;20099;-85
2022/07/25 04:10:18;;;;;;;11.88;5.70;;;;;;;;;;5063905;28;20012;-85
2022/07/25 04:12:44;;;;;;;7.47;5.25;;;;;;;;;;5064746;28;20097;-85
2022/07/25 04:15:11;;;;;;;8.15;5.18;;;;;;;;;;5064292;28;20033;-85
2022/07/25 04:17:37;;;;;;;8.32;5.30;;;;;;;;;;5048459;28;20029;-85
2022/07/25 04:20:04;;;;;;;10.10;5.30;;;;;;;;;;5064770;28;20498;-85
2022/07/25 04:22:30;;;;;;;8.32;5.40;;;;;;;;;;5064213;28;20020;-84
2022/07/25 04:24:56;;;;;;;7.82;5.10;;;;;;;;;;5062936;28;20115;-85
2022/07/25 04:27:22;;;;;;;7.65;4.97;;;;;;;;;;5059171;28;20044;-85
2022/07/25 04:29:48;;;;;;;7.95;5.43;;;;;;;;;;5055924;28;20025;-85
2022/07/25 04:32:15;;;;;;;10.43;5.10;;;;;;;;;;5060713;28;20029;-85
2022/07/25 04:34:43;;;;;;;7.97;5.35;;;;;;;;;;5061029;28;20028;-85
2022/07/25 04:37:09;;;;;;;9.20;5.97;;;;;;;;;;5061698;28;20025;-85
2022/07/25 04:39:35;;;;;;;10.73;5.70;;;;;;;;;;5057934;28;20097;-85
2022/07/25 04:42:01;;;;;;;9.30;5.50;;;;;;;;;;5041034;28;20049;-85
2022/07/25 04:44:27;;;;;;;7.93;5.13;;;;;;;;;;5039340;28;20022;-85
2022/07/25 04:46:53;;;;;;;8.80;5.70;;;;;;;;;;5039938;28;20022;-85
2022/07/25 04:49:19;;;;;;;11.82;5.57;;;;;;;;;;5038305;28;20032;-85
2022/07/25 04:51:45;;;;;;;11.43;5.88;;;;;;;;;;5021481;28;20138;-85
2022/07/25 04:54:11;;;;;;;8.50;5.68;;;;;;;;;;5019276;28;20471;-85
2022/07/25 04:56:37;;;;;;;12.20;5.50;;;;;;;;;;5021250;28;20028;-85
2022/07/25 04:59:03;;;;;;;13.52;5.75;;;;;;;;;;5033549;28;20053;-85
2022/07/25 05:01:29;;;;;;;11.18;5.57;;;;;;;;;;5054623;28;20037;-85
2022/07/25 05:03:55;;;;;;;9.95;5.68;;;;;;;;;;5060704;28;20021;-84
2022/07/25 05:06:21;;;;;;;11.70;5.70;;;;;;;;;;5058312;28;20021;-85
2022/07/25 05:08:47;;;;;;;8.05;5.47;;;;;;;;;;5058799;28;20496;-85
2022/07/25 05:11:13;;;;;;;8.98;5.28;;;;;;;;;;5057225;28;20028;-85
2022/07/25 05:13:39;;;;;;;10.50;5.97;;;;;;;;;;5059317;28;20075;-85
2022/07/25 05:16:06;;;;;;;8.95;5.63;;;;;;;;;;5060626;28;20028;-85
2022/07/25 05:18:33;;;;;;;8.70;5.72;;;;;;;;;;5060043;28;20025;-85
2022/07/25 05:20:59;;;;;;;8.25;5.78;;;;;;;;;;5060083;28;20029;-85
2022/07/25 05:23:25;;;;;;;11.13;5.32;;;;;;;;;;5041150;28;20033;-85
2022/07/25 05:25:51;;;;;;;9.80;4.72;;;;;;;;;;5039097;28;20033;-85
2022/07/25 05:28:17;;;;;;;7.43;5.38;;;;;;;;;;5053531;28;20045;-85
2022/07/25 05:30:43;;;;;;;9.38;5.30;;;;;;;;;;5059417;28;20040;-85
2022/07/25 05:33:09;;;;;;;8.73;5.55;;;;;;;;;;5060050;28;20234;-85
2022/07/25 05:35:35;;;;;;;8.10;4.88;;;;;;;;;;5060082;28;20082;-85
2022/07/25 05:38:01;;;;;;;8.73;5.22;;;;;;;;;;5050067;28;20026;-85
2022/07/25 05:40:27;;;;;;;9.25;5.40;;;;;;;;;;5059931;28;20032;-85
2022/07/25 05:42:53;;;;;;;9.50;5.38;;;;;;;;;;5059697;28;20035;-85
2022/07/25 05:45:19;;;;;;;10.60;5.68;;;;;;;;;;5061600;28;20107;-85
2022/07/25 05:47:45;;;;;;;8.90;5.25;;;;;;;;;;5081056;28;20031;-85
2022/07/25 05:50:12;;;;;;;9.70;5.80;;;;;;;;;;5080836;28;20040;-85
2022/07/25 05:52:38;;;;;;;10.77;5.35;;;;;;;;;;5061858;28;20020;-85
2022/07/25 05:55:04;;;;;;;12.23;5.68;;;;;;;;;;5062232;28;20128;-86
2022/07/25 05:57:32;;;;;;;9.27;5.38;;;;;;;;;;5076616;28;20478;-85
2022/07/25 05:59:58;;;;;;;8.35;5.40;;;;;;;;;;5079712;28;20033;-85
2022/07/25 06:02:24;;;;;;;10.75;6.35;;;;;;;;;;5079492;28;20032;-85
2022/07/25 06:04:50;;;;;;;12.63;5.90;;;;;;;;;;5079422;28;20088;-85
2022/07/25 06:07:16;;;;;;;9.80;6.05;;;;;;;;;;5077393;28;20052;-85
2022/07/25 06:09:42;;;;;;;11.55;5.63;;;;;;;;;;5059346;28;20052;-85
2022/07/25 06:12:08;;;;;;;8.05;5.82;;;;;;;;;;5059491;28;20064;-85
2022/07/25 06:14:34;;;;;;;10.43;6.20;;;;;;;;;;5057040;28;20021;-84
2022/07/25 06:17:00;;;;;;;9.85;5.90;;;;;;;;;;5059091;28;20043;-85
2022/07/25 06:19:26;;;;;;;9.02;5.80;;;;;;;;;;5060905;28;20111;-85
2022/07/25 06:21:53;;;;;;;9.55;6.22;;;;;;;;;;5059812;28;20052;-85
2022/07/25 06:24:19;;;;;;;9.80;6.40;;;;;;;;;;5074862;28;20020;-85
2022/07/25 06:26:45;;;;;;;11.07;6.28;;;;;;;;;;5040189;28;20036;-85
2022/07/25 06:29:12;;;;;;;9.27;6.00;;;;;;;;;;5039419;28;20126;-85
2022/07/25 06:31:38;;;;;;;9.05;5.72;;;;;;;;;;5056976;28;20079;-85
2022/07/25 06:34:04;;;;;;;8.00;6.28;;;;;;;;;;5056331;28;20024;-86
2022/07/25 06:36:30;;;;;;;7.00;5.18;;;;;;;;;;5074647;28;20656;-85
2022/07/25 06:38:56;;;;;;;6.95;4.82;;;;;;;;;;5040159;28;20217;-86
2022/07/25 06:41:22;;;;;;;7.95;5.05;;;;;;;;;;5039542;28;20075;-85
2022/07/25 06:43:48;;;;;;;10.57;6.18;;;;;;;;;;5020502;28;20025;-85
2022/07/25 06:46:14;;;;;;;10.00;4.78;;;;;;;;;;5072807;28;20028;-85
2022/07/25 06:48:40;;;;;;;11.38;5.63;;;;;;;;;;5079071;28;20070;-86
2022/07/25 06:51:06;;;;;;;7.97;5.15;;;;;;;;;;5060964;28;20044;-85
2022/07/25 06:53:32;;;;;;;11.82;4.68;;;;;;;;;;5079679;28;20025;-85
2022/07/25 06:55:58;;;;;;;12.48;4.60;;;;;;;;;;5048708;28;20029;-85
2022/07/25 06:58:24;;;;;;;10.40;4.80;;;;;;;;;;5039280;28;20025;-85
2022/07/25 07:00:50;;;;;;;8.35;4.32;;;;;;;;;;5020061;28;20029;-85
2022/07/25 07:03:16;;;;;;;6.50;4.38;;;;;;;;;;5019846;28;20066;-85
2022/07/25 07:05:42;;;;;;;7.90;4.60;;;;;;;;;;5056457;28;20111;-86
2022/07/25 07:08:08;;;;;;;6.75;3.78;;;;;;;;;;5077036;28;20021;-85
2022/07/25 07:10:35;;;;;;;7.45;4.07;;;;;;;;;;5077429;28;20021;-85
2022/07/25 07:13:08;;;;;;;8.07;3.90;;;;;;;;;;5060087;28;20078;-85
2022/07/25 07:15:34;;;;;;;7.90;3.88;;;;;;;;;;5067000;28;20039;-85
2022/07/25 07:18:01;;;;;;;8.93;4.22;;;;;;;;;;5039718;28;20390;-85
2022/07/25 07:20:27;;;;;;;8.85;4.10;;;;;;;;;;5055566;28;20513;-85
2022/07/25 07:22:53;;;;;;;6.78;4.20;;;;;;;;;;5056227;28;20071;-85
2022/07/25 07:25:20;;;;;;;7.00;4.38;;;;;;;;;;5048332;28;20035;-86
2022/07/25 07:27:46;;;;;;;13.68;5.00;;;;;;;;;;5079861;28;20414;-86
2022/07/25 07:30:13;;;;;;;9.77;4.53;;;;;;;;;;5063798;28;20021;-85
2022/07/25 07:32:40;;;;;;;6.78;4.05;;;;;;;;;;5061359;28;20021;-85
2022/07/25 07:35:06;;;;;;;7.82;3.88;;;;;;;;;;5079816;28;20032;-85
2022/07/25 07:37:32;;;;;;;7.18;3.53;;;;;;;;;;5080749;28;20051;-84
2022/07/25 07:39:58;;;;;;;8.07;3.95;;;;;;;;;;5063338;28;20024;-86
2022/07/25 07:42:24;;;;;;;7.18;3.90;;;;;;;;;;5080455;28;20490;-85
2022/07/25 07:44:50;;;;;;;6.82;3.83;;;;;;;;;;5078978;28;20044;-85
2022/07/25 07:47:16;;;;;;;8.70;4.05;;;;;;;;;;5081349;28;20024;-86
2022/07/25 07:49:42;;;;;;;8.10;4.32;;;;;;;;;;5060454;28;20016;-86
2022/07/25 07:52:08;;;;;;;7.60;3.80;;;;;;;;;;5069836;28;20025;-85
2022/07/25 07:57:19;;;;;;;6.70;3.90;;;;;;;;;;5075871;28;20067;-86
2022/07/25 07:59:45;;;;;;;6.97;3.95;;;;;;;;;;5076981;28;20024;-86
2022/07/25 08:02:11;;;;;;;5.88;3.50;;;;;;;;;;5058235;28;20059;-86
2022/07/25 08:04:37;;;;;;;5.88;3.70;;;;;;;;;;5077332;28;20105;-86
2022/07/25 08:07:03;;;;;;;7.70;3.50;;;;;;;;;;5076716;28;20478;-86
2022/07/25 08:09:29;;;;;;;8.45;3.90;;;;;;;;;;5078103;28;20081;-85
2022/07/25 08:11:55;;;;;;;6.28;3.80;;;;;;;;;;5059309;28;20119;-85
2022/07/25 08:14:22;;;;;;;5.40;3.28;;;;;;;;;;5077017;28;20121;-86
2022/07/25 08:16:49;;;;;;;6.70;3.65;;;;;;;;;;5060497;28;20028;-86
2022/07/25 08:19:15;;;;;;;5.60;3.88;;;;;;;;;;5059621;28;20386;-85
2022/07/25 08:21:41;;;;;;;6.65;3.83;;;;;;;;;;5074643;28;20039;-85
2022/07/25 08:24:07;;;;;;;6.28;3.70;;;;;;;;;;5060436;28;20064;-86
2022/07/25 08:26:35;;;;;;;6.22;3.65;;;;;;;;;;5057686;28;20029;-86
2022/07/25 08:29:01;;;;;;;6.13;3.88;;;;;;;;;;5058678;28;20460;-86
2022/07/25 08:31:28;;;;;;;6.55;3.70;;;;;;;;;;5055814;28;20116;-86
2022/07/25 08:33:54;;;;;;;7.57;3.67;;;;;;;;;;5038407;28;20021;-86
2022/07/25 08:36:20;;;;;;;7.88;3.90;;;;;;;;;;5038810;28;20044;-85
2022/07/25 08:38:46;;;;;;;9.65;3.97;;;;;;;;;;5058488;28;20468;-86
2022/07/25 08:41:12;;;;;;;7.90;4.40;;;;;;;;;;5039983;28;20021;-86
2022/07/25 08:43:38;;;;;;;8.05;4.03;;;;;;;;;;5037822;28;20022;-85
2022/07/25 08:46:05;;;;;;;7.97;4.20;;;;;;;;;;5058033;28;20017;-86
2022/07/25 08:48:31;;;;;;;7.70;4.05;;;;;;;;;;5058990;28;20021;-86
2022/07/25 08:50:57;;;;;;;6.15;3.58;;;;;;;;;;5041400;28;20021;-86
2022/07/25 08:53:24;;;;;;;7.00;3.92;;;;;;;;;;5062754;28;20045;-86
2022/07/25 08:55:50;;;;;;;6.15;3.67;;;;;;;;;;5058759;28;20024;-87
2022/07/25 08:58:17;;;;;;;7.80;3.85;;;;;;;;;;5059638;28;20021;-86
2022/07/25 09:00:43;;;;;;;8.30;4.38;;;;;;;;;;5079186;28;20028;-85
2022/07/25 09:03:10;;;;;;;6.13;3.88;;;;;;;;;;5076868;28;20021;-86
2022/07/25 09:05:36;;;;;;;8.48;4.50;;;;;;;;;;5059702;28;20028;-86
2022/07/25 09:08:21;;;;;;;10.07;4.63;;;;;;;;;;5077986;28;20021;-86
2022/07/25 09:10:48;;;;;;;7.75;4.35;;;;;;;;;;5077711;28;20017;-86
2022/07/25 09:13:14;;;;;;;9.77;5.03;;;;;;;;;;5062556;28;20025;-86
2022/07/25 09:15:46;;;;;;;7.22;4.30;;;;;;;;;;5036738;28;20033;-86
2022/07/25 09:18:13;;;;;;;7.38;4.15;;;;;;;;;;5058408;28;20555;-86
2022/07/25 09:20:43;;;;;;;8.50;4.50;;;;;;;;;;5056596;28;20044;-86
2022/07/25 09:23:10;;;;;;;6.35;4.30;;;;;;;;;;5038936;28;20086;-86
2022/07/25 09:25:36;;;;;;;8.55;4.40;;;;;;;;;;5042301;28;20025;-85
2022/07/25 09:28:09;;;;;;;8.02;5.00;;;;;;;;;;5063176;28;20052;-85
2022/07/25 09:30:35;;;;;;;6.60;4.70;;;;;;;;;;5056970;28;20505;-86
2022/07/25 09:33:02;;;;;;;6.70;4.55;;;;;;;;;;5073716;28;20500;-86
2022/07/25 09:35:32;;;;;;;8.15;4.82;;;;;;;;;;5056142;28;20335;-86
2022/07/25 09:38:10;;;;;;;7.68;4.47;;;;;;;;;;5057290;28;20044;-85
2022/07/25 09:40:36;;;;;;;7.88;4.68;;;;;;;;;;5045667;28;20025;-87
2022/07/25 09:43:03;;;;;;;6.85;4.85;;;;;;;;;;5034962;28;20021;-88
2022/07/25 09:45:29;;;;;;;9.30;5.22;;;;;;;;;;5036444;28;20083;-86
2022/07/25 09:48:02;;;;;;;7.63;5.20;;;;;;;;;;5036019;28;20051;-86
2022/07/25 09:50:29;;;;;;;9.40;5.43;;;;;;;;;;5032213;28;20026;-88
2022/07/25 09:52:57;;;;;;;10.45;5.50;;;;;;;;;;5041440;28;20025;-87
2022/07/25 09:55:23;;;;;;;9.48;5.40;;;;;;;;;;5074293;28;20436;-86
2022/07/25 09:57:51;;;;;;;8.50;5.40;;;;;;;;;;5052692;28;20074;-85
2022/07/25 10:00:22;;;;;;;8.88;6.00;;;;;;;;;;5062929;28;20123;-86
2022/07/25 10:03:01;;;;;;;7.72;5.55;;;;;;;;;;5056702;28;20037;-85
2022/07/25 10:05:36;;;;;;;7.03;5.50;;;;;;;;;;5073787;28;20051;-87
2022/07/25 10:08:05;;;;;;;7.85;5.82;;;;;;;;;;5072558;28;20505;-86
2022/07/25 10:10:36;;;;;;;7.05;5.70;;;;;;;;;;5041971;28;20087;-87
2022/07/25 10:13:14;;;;;;;8.68;6.20;;;;;;;;;;5073321;28;20023;-86
2022/07/25 10:15:40;;;;;;;9.32;6.38;;;;;;;;;;5055369;28;20035;-86
2022/07/25 10:18:07;;;;;;;7.65;6.20;;;;;;;;;;5055642;28;20029;-85
2022/07/25 10:20:33;;;;;;;8.75;6.28;;;;;;;;;;5059471;28;20057;-87
2022/07/25 10:22:59;;;;;;;8.70;7.03;;;;;;;;;;5035305;28;20030;-86
2022/07/25 10:25:25;;;;;;;7.60;6.15;;;;;;;;;;5015589;28;20013;-86
2022/07/25 10:27:59;;;;;;;8.32;6.47;;;;;;;;;;5015114;28;20091;-86
2022/07/25 10:30:27;;;;;;;8.98;6.72;;;;;;;;;;5015218;28;20049;-85
2022/07/25 10:33:02;;;;;;;9.10;6.80;;;;;;;;;;5060580;28;20426;-87
2022/07/25 10:35:29;;;;;;;8.90;6.32;;;;;;;;;;5055588;28;20021;-87
2022/07/25 10:37:56;;;;;;;9.90;6.07;;;;;;;;;;5054852;28;20372;-87
2022/07/25 10:40:26;;;;;;;9.60;6.72;;;;;;;;;;5055460;28;20023;-86
2022/07/25 10:42:57;;;;;;;9.13;6.88;;;;;;;;;;5053586;28;20028;-86
2022/07/25 10:45:26;;;;;;;7.97;6.55;;;;;;;;;;5051573;28;20033;-86
2022/07/25 10:47:55;;;;;;;8.57;7.00;;;;;;;;;;5053300;28;20013;-84
2022/07/25 10:50:22;;;;;;;7.80;6.88;;;;;;;;;;5051180;28;20174;-87
2022/07/25 10:52:58;;;;;;;8.70;6.60;;;;;;;;;;5051982;28;20066;-85
2022/07/25 10:55:27;;;;;;;8.43;6.82;;;;;;;;;;5051503;28;20025;-86
2022/07/25 10:58:02;;;;;;;11.25;7.57;;;;;;;;;;5032022;28;20026;-86
2022/07/25 11:00:29;;;;;;;9.85;7.20;;;;;;;;;;5034908;28;20535;-86
2022/07/25 11:02:56;;;;;;;9.55;7.03;;;;;;;;;;5034810;28;20033;-86
2022/07/25 11:05:22;;;;;;;9.00;7.20;;;;;;;;;;5070757;28;20036;-87
2022/07/25 11:07:53;;;;;;;8.65;6.97;;;;;;;;;;5059056;28;20071;-87
2022/07/25 11:10:25;;;;;;;10.63;7.15;;;;;;;;;;5076693;28;20020;-86
2022/07/25 11:12:51;;;;;;;8.65;6.63;;;;;;;;;;5075916;28;20028;-87
2022/07/25 11:15:21;;;;;;;8.85;6.93;;;;;;;;;;5041626;28;20029;-86
2022/07/25 11:17:51;;;;;;;7.63;6.68;;;;;;;;;;5056295;28;20024;-88
2022/07/25 11:20:20;;;;;;;8.27;6.78;;;;;;;;;;5055004;28;20025;-86
2022/07/25 11:22:53;;;;;;;9.93;6.85;;;;;;;;;;5055681;28;20035;-85
2022/07/25 11:25:20;;;;;;;9.07;7.25;;;;;;;;;;5054117;28;20040;-86
2022/07/25 11:27:49;;;;;;;7.95;7.13;;;;;;;;;;5055758;28;20469;-86
2022/07/25 11:30:16;;;;;;;8.68;7.22;;;;;;;;;;5037472;28;20052;-88
2022/07/25 11:32:48;;;;;;;7.75;6.95;;;;;;;;;;5037192;28;20108;-87
2022/07/25 11:35:14;;;;;;;9.10;6.65;;;;;;;;;;5037504;28;20028;-86
2022/07/25 11:37:41;;;;;;;9.98;7.38;;;;;;;;;;5037394;28;20045;-86
2022/07/25 11:40:08;;;;;;;10.32;7.30;;;;;;;;;;5037938;28;20031;-85
2022/07/25 11:42:44;;;;;;;7.95;6.45;;;;;;;;;;5056395;28;20057;-87
2022/07/25 11:45:17;;;;;;;8.82;6.90;;;;;;;;;;5036924;28;20090;-86
2022/07/25 11:47:43;;;;;;;9.10;7.07;;;;;;;;;;5054333;28;20038;-86
2022/07/25 11:50:13;;;;;;;8.57;6.75;;;;;;;;;;5037745;28;20479;-87
2022/07/25 11:52:41;;;;;;;9.25;6.70;;;;;;;;;;5058178;28;20078;-88
2022/07/25 11:55:11;;;;;;;7.10;5.93;;;;;;;;;;5039486;28;20086;-87
2022/07/25 11:57:38;;;;;;;8.75;6.63;;;;;;;;;;5057664;28;20024;-87
2022/07/25 12:00:08;;;;;;;7.47;6.22;;;;;;;;;;5038180;28;20033;-86
2022/07/25 12:02:35;;;;;;;7.22;5.80;;;;;;;;;;5057882;28;20051;-86
2022/07/25 12:05:04;;;;;;;7.88;6.63;;;;;;;;;;5056259;28;20017;-86
2022/07/25 12:07:45;;;;;;;7.57;6.22;;;;;;;;;;5058372;28;20120;-87
2022/07/25 12:10:14;;;;;;;9.70;6.63;;;;;;;;;;5057595;28;20067;-85
2022/07/25 12:12:50;;;;;;;8.35;6.57;;;;;;;;;;5056532;28;20021;-87
2022/07/25 12:15:20;;;;;;;7.72;6.68;;;;;;;;;;5058548;28;20024;-86
2022/07/25 12:17:47;;;;;;;7.65;5.95;;;;;;;;;;5051473;28;20025;-85
2022/07/25 12:20:14;;;;;;;8.80;7.13;;;;;;;;;;5037800;28;20051;-86
2022/07/25 12:22:41;;;;;;;8.38;6.32;;;;;;;;;;5054440;28;20025;-88
2022/07/25 12:25:07;;;;;;;10.63;6.75;;;;;;;;;;5037186;28;20036;-86
2022/07/25 12:27:33;;;;;;;8.15;6.22;;;;;;;;;;5054729;28;20494;-86
2022/07/25 12:29:59;;;;;;;9.15;6.03;;;;;;;;;;5061239;28;20103;-86
2022/07/25 12:32:25;;;;;;;8.38;5.78;;;;;;;;;;5075775;28;20054;-87
2022/07/25 12:34:51;;;;;;;8.77;6.22;;;;;;;;;;5075991;28;20024;-87
2022/07/25 12:37:17;;;;;;;8.27;6.07;;;;;;;;;;5057743;28;20032;-86
2022/07/25 12:39:43;;;;;;;7.53;6.22;;;;;;;;;;5056956;28;20098;-86
2022/07/25 12:42:09;;;;;;;8.07;6.25;;;;;;;;;;5047498;28;20032;-86
2022/07/25 12:44:36;;;;;;;8.30;5.82;;;;;;;;;;5055033;28;20534;-88
2022/07/25 12:47:02;;;;;;;8.27;5.95;;;;;;;;;;5037830;28;20025;-86
2022/07/25 12:49:28;;;;;;;9.07;6.40;;;;;;;;;;5055633;28;20017;-86
2022/07/25 12:51:54;;;;;;;8.05;5.65;;;;;;;;;;5037515;28;20032;-86
2022/07/25 12:54:21;;;;;;;8.68;6.65;;;;;;;;;;5047290;28;20028;-86
2022/07/25 12:56:47;;;;;;;7.82;6.22;;;;;;;;;;5057655;28;20032;-86
2022/07/25 12:59:13;;;;;;;6.82;5.88;;;;;;;;;;5047251;28;20036;-86
2022/07/25 13:01:39;;;;;;;8.38;5.70;;;;;;;;;;5053764;28;20036;-86
2022/07/25 13:04:08;;;;;;;11.90;6.13;;;;;;;;;;5052393;28;20086;-87
2022/07/25 13:06:36;;;;;;;7.57;6.13;;;;;;;;;;5051759;28;20066;-86
2022/07/25 13:09:03;;;;;;;10.02;6.30;;;;;;;;;;5021641;28;20482;-87
2022/07/25 13:11:29;;;;;;;8.73;6.00;;;;;;;;;;5038159;28;20467;-85
2022/07/25 13:13:55;;;;;;;8.10;6.32;;;;;;;;;;5038381;28;20107;-86
2022/07/25 13:16:21;;;;;;;7.43;6.22;;;;;;;;;;5068116;28;20033;-86
2022/07/25 13:18:47;;;;;;;7.82;6.78;;;;;;;;;;5058193;28;20020;-86
2022/07/25 13:21:14;;;;;;;7.90;6.70;;;;;;;;;;5075161;28;20079;-86
2022/07/25 13:23:41;;;;;;;7.00;6.22;;;;;;;;;;5055779;28;20056;-86
2022/07/25 13:26:08;;;;;;;8.45;6.10;;;;;;;;;;5054185;28;20149;-86
2022/07/25 13:28:34;;;;;;;7.25;6.32;;;;;;;;;;5045924;28;20094;-86
2022/07/25 13:31:05;;;;;;;8.23;5.90;;;;;;;;;;5054960;28;20032;-86
2022/07/25 13:33:32;;;;;;;9.10;6.28;;;;;;;;;;5053985;28;20050;-86
2022/07/25 13:35:58;;;;;;;7.50;5.75;;;;;;;;;;5036279;28;20037;-86
2022/07/25 13:38:24;;;;;;;7.55;6.20;;;;;;;;;;5069984;28;20016;-86
2022/07/25 13:40:50;;;;;;;7.35;6.18;;;;;;;;;;5057928;28;20032;-85
2022/07/25 13:43:16;;;;;;;9.23;6.43;;;;;;;;;;5075502;28;20028;-85
2022/07/25 13:45:43;;;;;;;7.05;6.25;;;;;;;;;;5065109;28;20035;-88
2022/07/25 13:48:09;;;;;;;7.25;5.90;;;;;;;;;;5052306;28;20036;-86
2022/07/25 13:50:37;;;;;;;7.55;5.80;;;;;;;;;;5052573;28;20032;-85
2022/07/25 13:53:05;;;;;;;7.68;6.30;;;;;;;;;;5054319;28;20029;-85
2022/07/25 13:55:31;;;;;;;7.53;6.43;;;;;;;;;;5036078;28;20071;-85
2022/07/25 13:57:57;;;;;;;6.70;5.88;;;;;;;;;;5058945;28;20042;-85
2022/07/25 14:00:23;;;;;;;7.72;6.20;;;;;;;;;;5056203;28;20036;-86
2022/07/25 14:02:50;;;;;;;9.70;6.45;;;;;;;;;;5056413;28;20510;-85
2022/07/25 14:05:16;;;;;;;8.20;5.97;;;;;;;;;;5075841;28;20063;-85
2022/07/25 14:07:42;;;;;;;7.85;6.38;;;;;;;;;;5073319;28;20008;-85
2022/07/25 14:10:08;;;;;;;8.25;6.28;;;;;;;;;;5058754;28;20020;-86
2022/07/25 14:12:35;;;;;;;8.95;6.00;;;;;;;;;;5075134;28;20031;-85
2022/07/25 14:15:01;;;;;;;8.13;6.05;;;;;;;;;;5055818;28;20020;-86
2022/07/25 14:17:27;;;;;;;9.05;6.90;;;;;;;;;;5054075;28;20123;-85
2022/07/25 14:19:54;;;;;;;8.65;6.25;;;;;;;;;;5052775;28;20506;-87
2022/07/25 14:22:20;;;;;;;7.70;6.18;;;;;;;;;;5054932;28;20074;-87
2022/07/25 14:24:46;;;;;;;8.43;6.50;;;;;;;;;;5022994;28;20092;-85
2022/07/25 14:27:12;;;;;;;7.18;6.15;;;;;;;;;;5034518;28;20036;-85
2022/07/25 14:29:38;;;;;;;8.13;6.00;;;;;;;;;;5024473;28;20021;-86
2022/07/25 14:32:06;;;;;;;7.90;6.10;;;;;;;;;;5074788;28;20074;-85
2022/07/25 14:34:32;;;;;;;9.00;6.53;;;;;;;;;;5075603;28;20025;-85
2022/07/25 14:36:58;;;;;;;8.60;6.13;;;;;;;;;;5074992;28;20376;-86
2022/07/25 14:39:24;;;;;;;7.78;5.63;;;;;;;;;;5075213;28;20447;-84
2022/07/25 14:41:50;;;;;;;8.85;6.50;;;;;;;;;;5069115;28;20088;-86